Time;durP1;ratioP1;P1;durP2;ratioP2;P2;SDS_P1;SDS_P2;PMS_P1;PMS_P2;Temp;Humidity;BMP_temperature;BMP_pressure;BME280_temperature;BME280_humidity;BME280_pressure;Samples;Min_cycle;Max_cycle;Signal;HPM_P1;HPM_P2
2019/12/22 00:01:34;;;;;;;12.7;11.4;;;;;;;4.09;78.57422;935.0391;;;;
2019/12/22 00:03:59;;;;;;;13.6;12.2;;;;;;;4.08;78.54004;934.9902;;;;
2019/12/22 00:06:24;;;;;;;12.4;11.1;;;;;;;4.06;78.78906;935.0494;;;;
2019/12/22 00:08:49;;;;;;;12.9;11.6;;;;;;;4.09;78.99023;935.06;;;;
2019/12/22 00:11:15;;;;;;;13.1;11.7;;;;;;;4.04;79.18848;935.1;;;;
2019/12/22 00:13:40;;;;;;;13;11.7;;;;;;;4.06;79.19336;935.0891;;;;
2019/12/22 00:16:05;;;;;;;13.4;11.8;;;;;;;4.1;79.14355;935.0466;;;;
2019/12/22 00:18:36;;;;;;;15.2;13.6;;;;;;;4.11;79.22559;935.0066;;;;
2019/12/22 00:20:55;;;;;;;14.8;12.2;;;;;;;4.09;79.38379;935.1439;;;;
2019/12/22 00:23:20;;;;;;;16.6;14.8;;;;;;;3.77;80.39648;935.4138;;;;
2019/12/22 00:25:46;;;;;;;14.7;13.1;;;;;;;3.72;81.16113;935.6323;;;;
2019/12/22 00:28:11;;;;;;;13.3;11.7;;;;;;;3.66;81.44727;935.705;;;;
2019/12/22 00:30:36;;;;;;;11.4;10.3;;;;;;;3.7;81.73438;935.7003;;;;
2019/12/22 00:33:01;;;;;;;10.7;9.6;;;;;;;3.82;81.74316;935.7277;;;;
2019/12/22 00:35:26;;;;;;;10.6;9.5;;;;;;;3.83;82.08105;935.7853;;;;
2019/12/22 00:37:51;;;;;;;13.6;10.9;;;;;;;3.98;81.5791;935.9302;;;;
2019/12/22 00:40:17;;;;;;;10.7;9.6;;;;;;;3.94;81.71094;935.9185;;;;
2019/12/22 00:42:42;;;;;;;13.8;12.4;;;;;;;3.97;81.79688;936.0408;;;;
2019/12/22 00:45:07;;;;;;;14.5;13;;;;;;;3.9;82.04883;935.9187;;;;
2019/12/22 00:47:32;;;;;;;11.6;9.9;;;;;;;4;82.10352;935.827;;;;
2019/12/22 00:49:57;;;;;;;11.4;10.2;;;;;;;4.12;81.62695;935.6767;;;;
2019/12/22 00:52:22;;;;;;;11.6;10.4;;;;;;;4.1;81.53125;935.5762;;;;
2019/12/22 00:54:47;;;;;;;10.7;9.6;;;;;;;4.13;81.36523;935.587;;;;
2019/12/22 00:57:12;;;;;;;11.7;10.5;;;;;;;4.27;80.94336;935.5991;;;;
2019/12/22 00:59:37;;;;;;;13.1;11.8;;;;;;;4.35;80.58691;935.6816;;;;
2019/12/22 01:02:03;;;;;;;11.6;10.4;;;;;;;4.41;80.39063;935.4105;;;;
2019/12/22 01:04:28;;;;;;;11.8;10.6;;;;;;;4.38;80.58203;935.566;;;;
2019/12/22 01:06:53;;;;;;;12.1;10.8;;;;;;;4.26;81.22656;935.454;;;;
2019/12/22 01:09:18;;;;;;;12.4;11.1;;;;;;;4.26;81.14648;935.3463;;;;
2019/12/22 01:11:43;;;;;;;12.5;10.8;;;;;;;4.26;81.31934;935.3633;;;;
2019/12/22 01:14:08;;;;;;;11.3;10.1;;;;;;;4.36;80.86719;935.3558;;;;
2019/12/22 01:16:34;;;;;;;11.9;10.7;;;;;;;4.38;80.92871;935.5293;;;;
2019/12/22 01:18:59;;;;;;;11.9;10.7;;;;;;;4.39;81.01074;935.4699;;;;
2019/12/22 01:21:24;;;;;;;13.4;12;;;;;;;4.45;80.39746;935.5217;;;;
2019/12/22 01:23:49;;;;;;;11.6;10.4;;;;;;;4.29;81.29297;935.5717;;;;
2019/12/22 01:26:14;;;;;;;17;15.2;;;;;;;4.34;81.00098;935.6248;;;;
2019/12/22 01:28:40;;;;;;;16.2;14.6;;;;;;;4.36;80.99414;935.5221;;;;
2019/12/22 01:31:05;;;;;;;17.4;15.6;;;;;;;4.3;81.23535;935.6389;;;;
2019/12/22 01:33:30;;;;;;;14.3;12.9;;;;;;;4.22;81.24512;935.6309;;;;
2019/12/22 01:35:55;;;;;;;14;12.6;;;;;;;4.02;81.97949;935.6904;;;;
2019/12/22 01:38:20;;;;;;;12.4;11.1;;;;;;;4.1;81.98145;935.581;;;;
2019/12/22 01:40:46;;;;;;;15.1;13.1;;;;;;;4.07;81.72266;935.6415;;;;
2019/12/22 01:43:11;;;;;;;11.4;10.3;;;;;;;4.15;81.69141;935.6085;;;;
2019/12/22 01:45:36;;;;;;;12.1;10.8;;;;;;;4.25;81.22559;935.538;;;;
2019/12/22 01:48:01;;;;;;;14.7;13.2;;;;;;;4.08;81.72461;935.4973;;;;
2019/12/22 01:50:26;;;;;;;12.4;11.1;;;;;;;4.2;81.44824;935.4478;;;;
2019/12/22 01:52:51;;;;;;;13;11.7;;;;;;;4.13;81.65332;935.5317;;;;
2019/12/22 01:55:16;;;;;;;13.6;12.2;;;;;;;4;82.52832;935.5672;;;;
2019/12/22 01:57:42;;;;;;;11.6;10.4;;;;;;;4.15;81.92285;935.4363;;;;
2019/12/22 02:00:07;;;;;;;12.6;11.3;;;;;;;4.27;81.40234;935.4221;;;;
2019/12/22 02:02:32;;;;;;;11.7;10.5;;;;;;;4.39;81;935.3911;;;;
2019/12/22 02:04:57;;;;;;;12.1;10.9;;;;;;;4.43;81.24902;935.3448;;;;
2019/12/22 02:07:22;;;;;;;12.7;11.4;;;;;;;4.35;81.05078;935.3025;;;;
2019/12/22 02:09:47;;;;;;;13.1;11.7;;;;;;;4.27;81.78613;935.2112;;;;
2019/12/22 02:12:12;;;;;;;12.8;11.5;;;;;;;4.32;81.70215;935.2031;;;;
2019/12/22 02:14:38;;;;;;;13.1;11.7;;;;;;;4.48;81.15332;934.9626;;;;
2019/12/22 02:17:03;;;;;;;12.5;11.2;;;;;;;4.52;81.27734;934.8796;;;;
2019/12/22 02:19:28;;;;;;;11.7;10.5;;;;;;;4.61;81.15723;934.7493;;;;
2019/12/22 02:21:53;;;;;;;12.4;11.1;;;;;;;4.72;80.78418;934.6648;;;;
2019/12/22 02:24:18;;;;;;;12.8;11.5;;;;;;;4.69;80.28223;934.6465;;;;
2019/12/22 02:26:43;;;;;;;16.2;14.6;;;;;;;4.31;81.53711;934.7335;;;;
2019/12/22 02:29:08;;;;;;;15;13.5;;;;;;;4.06;82.95605;934.7658;;;;
2019/12/22 02:31:33;;;;;;;14.9;13.3;;;;;;;3.97;83.5166;934.6454;;;;
2019/12/22 02:33:59;;;;;;;13.8;12.4;;;;;;;3.95;83.44336;934.6161;;;;
2019/12/22 02:36:24;;;;;;;12.6;11.1;;;;;;;4.15;82.70801;934.4931;;;;
2019/12/22 02:38:49;;;;;;;11.6;10.4;;;;;;;4.36;82.10352;934.3329;;;;
2019/12/22 02:41:14;;;;;;;12.8;11.5;;;;;;;4.41;82.2627;934.212;;;;
2019/12/22 02:43:39;;;;;;;12.8;11.5;;;;;;;4.49;81.60742;934.0219;;;;
2019/12/22 02:46:04;;;;;;;13.9;12.5;;;;;;;4.43;81.5498;933.9665;;;;
2019/12/22 02:48:29;;;;;;;12.9;11.6;;;;;;;4.3;81.80273;933.9628;;;;
2019/12/22 02:50:55;;;;;;;12.5;11.2;;;;;;;4.34;81.69434;933.7167;;;;
2019/12/22 02:53:20;;;;;;;14.1;12.6;;;;;;;4.42;81.32813;933.7283;;;;
2019/12/22 02:55:45;;;;;;;12.8;10.9;;;;;;;4.42;81.09668;933.7661;;;;
2019/12/22 02:58:10;;;;;;;13.2;11.6;;;;;;;4.55;81.06641;933.8582;;;;
2019/12/22 03:00:35;;;;;;;12.8;11.4;;;;;;;4.57;80.80371;933.9061;;;;
2019/12/22 03:03:00;;;;;;;12.5;11.2;;;;;;;4.54;81.08594;933.9501;;;;
2019/12/22 03:05:26;;;;;;;12.5;11.2;;;;;;;4.55;80.92578;933.8383;;;;
2019/12/22 03:07:51;;;;;;;12.8;11.6;;;;;;;4.54;81.16699;933.8503;;;;
2019/12/22 03:10:16;;;;;;;12.9;11.6;;;;;;;4.56;81.08887;933.7515;;;;
2019/12/22 03:12:41;;;;;;;13;11.7;;;;;;;4.59;80.98047;933.7885;;;;
2019/12/22 03:15:06;;;;;;;15.4;13.8;;;;;;;4.26;82.36035;933.8859;;;;
2019/12/22 03:17:31;;;;;;;15.7;14.1;;;;;;;4;83.55762;933.8035;;;;
2019/12/22 03:19:57;;;;;;;13.9;11.4;;;;;;;4.09;83.5293;933.8008;;;;
2019/12/22 03:22:22;;;;;;;17.5;15.7;;;;;;;3.75;84.87891;933.9019;;;;
2019/12/22 03:24:47;;;;;;;18.4;16.5;;;;;;;3.73;84.94629;933.851;;;;
2019/12/22 03:27:12;;;;;;;16.8;15.1;;;;;;;3.84;84.29785;933.6772;;;;
2019/12/22 03:29:37;;;;;;;17.2;15.5;;;;;;;3.91;84.03516;933.7411;;;;
2019/12/22 03:32:02;;;;;;;17.4;15.6;;;;;;;3.95;83.8457;933.8162;;;;
2019/12/22 03:34:27;;;;;;;14.2;12.8;;;;;;;3.91;84.24121;933.9355;;;;
2019/12/22 03:36:53;;;;;;;16.2;14.6;;;;;;;3.94;84.02832;934.0535;;;;
2019/12/22 03:39:18;;;;;;;15.2;13.7;;;;;;;3.98;83.69141;934.1239;;;;
2019/12/22 03:41:43;;;;;;;14.9;11.6;;;;;;;3.93;83.88867;934.1108;;;;
2019/12/22 03:44:08;;;;;;;16.1;13.8;;;;;;;3.84;84.55176;934.0737;;;;
2019/12/22 03:46:33;;;;;;;12.4;11.1;;;;;;;3.78;84.67969;933.9717;;;;
2019/12/22 03:48:58;;;;;;;12.9;11.5;;;;;;;3.79;84.83008;933.9719;;;;
2019/12/22 03:51:23;;;;;;;13.3;12;;;;;;;3.81;84.76367;934.035;;;;
2019/12/22 03:53:49;;;;;;;11.6;10.5;;;;;;;3.94;84.46875;933.8954;;;;
2019/12/22 03:56:14;;;;;;;12.5;11.2;;;;;;;3.94;84.10938;933.9913;;;;
2019/12/22 03:58:39;;;;;;;11.5;10.3;;;;;;;4;83.82129;934.1448;;;;
2019/12/22 04:02:26;;;;;;;11.3;10.2;;;;;;;4.03;83.72461;934.1022;;;;
2019/12/22 04:04:51;;;;;;;10.5;9.5;;;;;;;4.09;83.57324;934.0527;;;;
2019/12/22 04:07:16;;;;;;;9.9;8.9;;;;;;;4.3;82.84082;934.0581;;;;
2019/12/22 04:09:42;;;;;;;9.6;8.6;;;;;;;4.4;82.26074;934.1061;;;;
2019/12/22 04:12:07;;;;;;;10.7;9.6;;;;;;;4.5;82.04785;934.0636;;;;
2019/12/22 04:14:32;;;;;;;12;10.8;;;;;;;4.5;81.97852;934.1086;;;;
2019/12/22 04:16:57;;;;;;;9;8.2;;;;;;;4.59;81.82227;934.1373;;;;
2019/12/22 04:19:22;;;;;;;10.8;9.7;;;;;;;4.6;82.02246;934.1982;;;;
2019/12/22 04:21:47;;;;;;;10.5;8.8;;;;;;;4.68;81.52832;934.2916;;;;
2019/12/22 04:24:12;;;;;;;12.3;11.1;;;;;;;4.62;81.8291;934.3309;;;;
2019/12/22 04:26:37;;;;;;;12.4;11.2;;;;;;;4.7;81.51855;934.3767;;;;
2019/12/22 04:29:02;;;;;;;12.3;11;;;;;;;4.66;81.87012;934.3722;;;;
2019/12/22 04:31:27;;;;;;;10.9;9.7;;;;;;;4.53;82.21484;934.4352;;;;
2019/12/22 04:33:52;;;;;;;11.9;10.7;;;;;;;4.54;82.32031;934.476;;;;
2019/12/22 04:36:17;;;;;;;12.2;10.5;;;;;;;4.5;82.8916;934.5239;;;;
2019/12/22 04:38:43;;;;;;;13.7;12.4;;;;;;;4.5;82.99609;934.6253;;;;
2019/12/22 04:41:08;;;;;;;13.4;12;;;;;;;4.45;83.29785;934.6805;;;;
2019/12/22 04:43:33;;;;;;;12.6;11.4;;;;;;;4.45;83.38965;934.7529;;;;
2019/12/22 04:45:58;;;;;;;12.4;11;;;;;;;4.45;83.4248;934.7996;;;;
2019/12/22 04:48:23;;;;;;;11.7;10.6;;;;;;;4.52;83.39258;934.7949;;;;
2019/12/22 04:50:48;;;;;;;13.3;12;;;;;;;4.58;83.26563;934.8555;;;;
2019/12/22 04:53:13;;;;;;;13.7;12;;;;;;;4.66;83.07324;934.9267;;;;
2019/12/22 04:55:38;;;;;;;12.4;11.1;;;;;;;4.75;82.75488;934.9573;;;;
2019/12/22 04:58:03;;;;;;;13.2;11.9;;;;;;;4.69;83.10254;934.9445;;;;
2019/12/22 05:00:28;;;;;;;13;11.7;;;;;;;4.72;83.24707;934.9562;;;;
2019/12/22 05:02:53;;;;;;;15.2;13.7;;;;;;;4.54;83.89258;934.9614;;;;
2019/12/22 05:05:18;;;;;;;13.9;12.6;;;;;;;4.57;83.92285;934.9213;;;;
2019/12/22 05:07:44;;;;;;;13.2;11.9;;;;;;;4.72;83.54688;934.8893;;;;
2019/12/22 05:10:09;;;;;;;13.5;12.2;;;;;;;4.82;83.08008;934.8819;;;;
2019/12/22 05:12:34;;;;;;;14.5;13;;;;;;;4.8;83.02148;934.8814;;;;
2019/12/22 05:14:59;;;;;;;13.9;12.6;;;;;;;4.82;83.19629;934.8458;;;;
2019/12/22 05:17:24;;;;;;;14.5;13.1;;;;;;;4.91;82.6582;934.863;;;;
2019/12/22 05:19:49;;;;;;;15.1;13.5;;;;;;;4.98;82.31348;934.8582;;;;
2019/12/22 05:22:14;;;;;;;13.8;12.4;;;;;;;4.97;82.25391;934.8635;;;;
2019/12/22 05:24:39;;;;;;;14.8;13.3;;;;;;;4.94;82.34082;934.8942;;;;
2019/12/22 05:27:04;;;;;;;13.9;12.5;;;;;;;4.83;82.66797;934.8569;;;;
2019/12/22 05:29:29;;;;;;;13.8;11.9;;;;;;;4.8;83.11133;934.8367;;;;
2019/12/22 05:31:54;;;;;;;13.2;11.9;;;;;;;4.74;83.36719;934.8236;;;;
2019/12/22 05:34:20;;;;;;;14.5;12.6;;;;;;;4.71;83.61523;934.8987;;;;
2019/12/22 05:36:45;;;;;;;13.9;12.5;;;;;;;4.79;83.39941;934.9468;;;;
2019/12/22 05:39:10;;;;;;;14.2;12.8;;;;;;;4.79;83.49219;934.9458;;;;
2019/12/22 05:41:35;;;;;;;15.2;13.3;;;;;;;4.67;84.0918;934.9351;;;;
2019/12/22 05:44:00;;;;;;;14.9;13.4;;;;;;;4.56;84.37109;934.9117;;;;
2019/12/22 05:46:25;;;;;;;14.4;13;;;;;;;4.67;84.11523;934.951;;;;
2019/12/22 05:48:50;;;;;;;14.7;13.2;;;;;;;4.68;84.10547;934.9138;;;;
2019/12/22 05:51:15;;;;;;;14.2;12.8;;;;;;;4.6;84.1123;934.8661;;;;
2019/12/22 05:53:41;;;;;;;14;12.6;;;;;;;4.7;84.74414;934.8162;;;;
2019/12/22 05:56:06;;;;;;;13.6;12.3;;;;;;;4.7;83.92578;934.803;;;;
2019/12/22 05:58:31;;;;;;;11;9.9;;;;;;;4.91;83.53711;934.7969;;;;
2019/12/22 06:00:56;;;;;;;12.7;11.4;;;;;;;4.86;82.93848;934.7327;;;;
2019/12/22 06:03:21;;;;;;;12.5;11.3;;;;;;;4.8;83.18164;934.7234;;;;
2019/12/22 06:05:46;;;;;;;12;10.8;;;;;;;4.85;83.2168;934.6435;;;;
2019/12/22 06:08:11;;;;;;;13.2;11.9;;;;;;;4.83;83.39648;934.6677;;;;
2019/12/22 06:10:36;;;;;;;10.8;9.8;;;;;;;5;82.60742;934.6503;;;;
2019/12/22 06:13:01;;;;;;;11.6;9.8;;;;;;;5.11;82.44238;934.6169;;;;
2019/12/22 06:15:26;;;;;;;11;9.8;;;;;;;5.2;81.83594;934.6019;;;;
2019/12/22 06:17:51;;;;;;;10.4;9.3;;;;;;;5.25;81.47559;934.609;;;;
2019/12/22 06:20:16;;;;;;;11.8;10.6;;;;;;;5.16;81.5498;934.6255;;;;
2019/12/22 06:22:41;;;;;;;12.1;10.8;;;;;;;5.19;81.55664;934.6038;;;;
2019/12/22 06:25:26;;;;;;;13.4;12;;;;;;;5.01;82.23926;934.5837;;;;
2019/12/22 06:27:51;;;;;;;13.8;12.4;;;;;;;4.91;82.63672;934.5705;;;;
2019/12/22 06:30:16;;;;;;;11.5;10.3;;;;;;;4.95;82.41016;934.5276;;;;
2019/12/22 06:32:41;;;;;;;13.4;12;;;;;;;4.98;82.40723;934.4874;;;;
2019/12/22 06:35:06;;;;;;;13.5;12.1;;;;;;;5.05;82.00391;934.4637;;;;
2019/12/22 06:37:31;;;;;;;14.1;12.7;;;;;;;4.98;82.16309;934.4877;;;;
2019/12/22 06:39:56;;;;;;;13.2;11.9;;;;;;;4.95;82.05371;934.5066;;;;
2019/12/22 06:42:21;;;;;;;14.5;13;;;;;;;5.01;81.84375;934.5461;;;;
2019/12/22 06:44:46;;;;;;;14.9;13.2;;;;;;;4.91;82.08105;934.5353;;;;
2019/12/22 06:47:11;;;;;;;12.1;10.9;;;;;;;4.88;82.19238;934.5452;;;;
2019/12/22 06:49:36;;;;;;;13.1;11.7;;;;;;;4.87;82.24512;934.5267;;;;
2019/12/22 06:52:02;;;;;;;13.1;11.6;;;;;;;4.83;82.50586;934.5051;;;;
2019/12/22 06:54:27;;;;;;;11.8;10.6;;;;;;;4.89;82.12305;934.5034;;;;
2019/12/22 06:56:52;;;;;;;12;10.8;;;;;;;4.82;82.47949;934.5317;;;;
2019/12/22 06:59:17;;;;;;;13.9;12.5;;;;;;;4.85;82.47656;934.5323;;;;
2019/12/22 07:01:42;;;;;;;13.7;12.3;;;;;;;4.94;82.50293;934.5414;;;;
2019/12/22 07:04:07;;;;;;;13.4;12.1;;;;;;;4.96;82.28613;934.6205;;;;
2019/12/22 07:06:32;;;;;;;12.9;11.6;;;;;;;5.03;81.79102;934.6618;;;;
2019/12/22 07:08:57;;;;;;;12.6;11.3;;;;;;;5.03;81.83691;934.6608;;;;
2019/12/22 07:11:22;;;;;;;11.9;10.6;;;;;;;4.97;81.60742;934.6965;;;;
2019/12/22 07:13:47;;;;;;;12.8;11.3;;;;;;;4.99;81.64355;934.7202;;;;
2019/12/22 07:16:12;;;;;;;13;11.6;;;;;;;5.03;81.41113;934.7313;;;;
2019/12/22 07:18:37;;;;;;;12.3;11;;;;;;;5.02;81.35156;934.7949;;;;
2019/12/22 07:21:02;;;;;;;13.1;11.2;;;;;;;5.03;81.51465;934.8005;;;;
2019/12/22 07:23:27;;;;;;;11.5;10.3;;;;;;;5.06;81.4043;934.8148;;;;
2019/12/22 07:25:52;;;;;;;11.6;10.3;;;;;;;4.99;81.62207;934.8191;;;;
2019/12/22 07:28:18;;;;;;;12.2;10.5;;;;;;;5.04;81.42285;934.8275;;;;
2019/12/22 07:30:43;;;;;;;12.3;11;;;;;;;4.98;81.5957;934.884;;;;
2019/12/22 07:33:08;;;;;;;13.3;10.6;;;;;;;4.98;81.65527;934.9358;;;;
2019/12/22 07:35:33;;;;;;;14.1;11.3;;;;;;;4.94;81.78613;934.9677;;;;
2019/12/22 07:37:58;;;;;;;14.2;12.7;;;;;;;5.02;81.46582;935.0045;;;;
2019/12/22 07:40:23;;;;;;;15.8;14.1;;;;;;;5.04;81.33203;934.986;;;;
2019/12/22 07:42:48;;;;;;;12.7;11.4;;;;;;;5.1;81.37793;935.0455;;;;
2019/12/22 07:45:13;;;;;;;11.6;10.4;;;;;;;4.97;81.76758;935.0433;;;;
2019/12/22 07:47:38;;;;;;;12.1;10.8;;;;;;;4.99;81.74805;935.1326;;;;
2019/12/22 07:50:03;;;;;;;11.6;10.4;;;;;;;4.95;81.92578;935.1722;;;;
2019/12/22 07:52:28;;;;;;;12.6;11.3;;;;;;;4.98;81.81543;935.1611;;;;
2019/12/22 07:54:53;;;;;;;10.5;9.4;;;;;;;4.96;82.03223;935.2272;;;;
2019/12/22 07:57:18;;;;;;;11.3;10.1;;;;;;;4.86;82.89258;935.2615;;;;
2019/12/22 07:59:44;;;;;;;10.6;9.5;;;;;;;4.91;82.72949;935.2598;;;;
2019/12/22 08:02:09;;;;;;;11.6;10.4;;;;;;;5.03;82.38086;935.2852;;;;
2019/12/22 08:04:34;;;;;;;10.2;9.2;;;;;;;5.07;82.28711;935.277;;;;
2019/12/22 08:06:59;;;;;;;9.9;8.9;;;;;;;5.03;82.67188;935.2355;;;;
2019/12/22 08:09:24;;;;;;;9.9;8.9;;;;;;;5.08;83.03906;935.2601;;;;
2019/12/22 08:11:49;;;;;;;9.2;8.3;;;;;;;5.14;82.61133;935.2748;;;;
2019/12/22 08:14:15;;;;;;;8.4;7.6;;;;;;;5.26;82.20508;935.2516;;;;
2019/12/22 08:16:40;;;;;;;9;8.1;;;;;;;5.27;82.43848;935.2921;;;;
2019/12/22 08:19:05;;;;;;;8.5;7.6;;;;;;;5.34;83.14648;935.2985;;;;
2019/12/22 08:21:30;;;;;;;9.7;8.7;;;;;;;5.3;82.24805;935.2883;;;;
2019/12/22 08:23:55;;;;;;;9.1;7.9;;;;;;;5.32;82.58789;935.322;;;;
2019/12/22 08:26:20;;;;;;;8.6;7.8;;;;;;;5.23;83.20703;935.3307;;;;
2019/12/22 08:28:45;;;;;;;10.3;8.3;;;;;;;5.26;83.14453;935.3795;;;;
2019/12/22 08:31:10;;;;;;;8.4;7.4;;;;;;;5.37;82.70215;935.3569;;;;
2019/12/22 08:33:36;;;;;;;8.8;7.8;;;;;;;5.36;82.72168;935.4333;;;;
2019/12/22 08:36:01;;;;;;;12.2;8.9;;;;;;;5.42;82.20117;935.4589;;;;
2019/12/22 08:38:26;;;;;;;7.9;7.1;;;;;;;5.5;82.10059;935.4881;;;;
2019/12/22 08:40:51;;;;;;;7.7;7;;;;;;;5.5;82.27441;935.5209;;;;
2019/12/22 08:43:17;;;;;;;6.8;6.1;;;;;;;5.48;82.41113;935.5029;;;;
2019/12/22 08:45:42;;;;;;;9.2;7.6;;;;;;;5.49;82.6084;935.5528;;;;
2019/12/22 08:48:07;;;;;;;8.6;6.6;;;;;;;5.48;82.83789;935.5968;;;;
2019/12/22 08:50:32;;;;;;;8.2;6.6;;;;;;;5.54;82.61816;935.657;;;;
2019/12/22 08:52:57;;;;;;;7.1;6.4;;;;;;;5.5;83.0752;935.7238;;;;
2019/12/22 08:55:23;;;;;;;9;7.1;;;;;;;5.6;82.78125;935.7062;;;;
2019/12/22 08:57:48;;;;;;;9.2;7.9;;;;;;;5.61;82.5625;935.8231;;;;
2019/12/22 09:00:13;;;;;;;9.2;6.3;;;;;;;5.57;83.08887;935.7977;;;;
2019/12/22 09:02:38;;;;;;;7;6.3;;;;;;;5.55;83.25781;935.8406;;;;
2019/12/22 09:05:03;;;;;;;5.4;4.9;;;;;;;5.49;83.55957;935.8781;;;;
2019/12/22 09:07:28;;;;;;;4.4;4;;;;;;;5.55;83.78027;935.9108;;;;
2019/12/22 09:09:53;;;;;;;4.3;3.6;;;;;;;5.62;83.67676;935.9523;;;;
2019/12/22 09:12:19;;;;;;;4.9;4.2;;;;;;;5.62;83.93359;935.9702;;;;
2019/12/22 09:14:44;;;;;;;7;4.6;;;;;;;5.62;84.04883;935.9808;;;;
2019/12/22 09:17:09;;;;;;;5.1;4.6;;;;;;;5.77;83.65918;936.0659;;;;
2019/12/22 09:19:34;;;;;;;5.8;4.3;;;;;;;5.77;83.30078;936.0542;;;;
2019/12/22 09:22:00;;;;;;;5.6;4.4;;;;;;;5.87;83.52734;936.0822;;;;
2019/12/22 09:24:25;;;;;;;5.6;4.7;;;;;;;5.97;82.87598;936.1106;;;;
2019/12/22 09:26:50;;;;;;;6.6;4.6;;;;;;;5.91;83.18848;936.1152;;;;
2019/12/22 09:29:15;;;;;;;7.9;5.2;;;;;;;6.01;83.30176;936.1317;;;;
2019/12/22 09:31:40;;;;;;;6.6;4.4;;;;;;;6.12;82.53516;936.1306;;;;
2019/12/22 09:34:05;;;;;;;7.4;5.5;;;;;;;6.15;82.51758;936.1528;;;;
2019/12/22 09:36:30;;;;;;;8;6.5;;;;;;;6.26;82.66504;936.2059;;;;
2019/12/22 09:38:55;;;;;;;9.3;6.7;;;;;;;6.3;82.36035;936.1586;;;;
2019/12/22 09:41:20;;;;;;;7.2;4.8;;;;;;;6.31;82.10645;936.1801;;;;
2019/12/22 09:43:45;;;;;;;6.8;5.1;;;;;;;6.21;82.75977;936.0911;;;;
2019/12/22 09:46:11;;;;;;;8.6;5.9;;;;;;;6.27;82.99219;936.0801;;;;
2019/12/22 09:48:36;;;;;;;15.9;11.1;;;;;;;6.37;82.51172;936.0879;;;;
2019/12/22 09:51:01;;;;;;;13.4;9.4;;;;;;;6.41;82.45996;936.0745;;;;
2019/12/22 09:53:26;;;;;;;13.6;10;;;;;;;6.43;81.72266;936.0181;;;;
2019/12/22 09:55:52;;;;;;;10;7.7;;;;;;;6.56;81.53809;935.9698;;;;
2019/12/22 09:58:17;;;;;;;14.2;9.4;;;;;;;6.5;81.54004;935.9431;;;;
2019/12/22 10:03:07;;;;;;;8.7;6.6;;;;;;;6.52;82.03125;935.7946;;;;
2019/12/22 10:05:32;;;;;;;7.6;6.4;;;;;;;6.59;81.91699;935.8474;;;;
2019/12/22 10:07:57;;;;;;;7.4;5.9;;;;;;;6.81;80.08789;935.8624;;;;
2019/12/22 10:10:22;;;;;;;9.6;6.4;;;;;;;6.75;80.77539;935.8285;;;;
2019/12/22 10:12:48;;;;;;;6.5;4.6;;;;;;;6.86;79.44531;935.793;;;;
2019/12/22 10:15:13;;;;;;;5.8;4.3;;;;;;;7.02;79.34863;935.7725;;;;
2019/12/22 10:17:38;;;;;;;6.7;4.9;;;;;;;7.03;79.83887;935.7662;;;;
2019/12/22 10:20:15;;;;;;;5.6;4.5;;;;;;;7.07;79.50781;935.759;;;;
2019/12/22 10:22:28;;;;;;;4.9;4.1;;;;;;;7.1;79.64258;935.7491;;;;
2019/12/22 10:24:53;;;;;;;4.4;3.8;;;;;;;7.06;79.95996;935.7683;;;;
2019/12/22 10:27:18;;;;;;;6;4.4;;;;;;;7.12;79.75;935.7073;;;;
2019/12/22 10:29:43;;;;;;;6.8;4.2;;;;;;;7.12;80.38965;935.6837;;;;
2019/12/22 10:32:09;;;;;;;7.8;6;;;;;;;7.15;79.83887;935.6495;;;;
2019/12/22 10:34:34;;;;;;;10.1;8.9;;;;;;;7.14;80.04395;935.5843;;;;
2019/12/22 10:36:59;;;;;;;5.7;4.9;;;;;;;6.94;81.5752;935.6291;;;;
2019/12/22 10:39:24;;;;;;;5.7;4.5;;;;;;;6.97;81.67676;935.6079;;;;
2019/12/22 10:41:49;;;;;;;9.7;7;;;;;;;7.06;81.19238;935.5856;;;;
2019/12/22 10:44:14;;;;;;;11.2;8.8;;;;;;;7.04;81.37305;935.5783;;;;
2019/12/22 10:46:39;;;;;;;7.8;6.2;;;;;;;7.17;81.08594;935.5463;;;;
2019/12/22 10:49:05;;;;;;;8.6;6;;;;;;;7.18;81.3418;935.5095;;;;
2019/12/22 10:51:30;;;;;;;7.9;5.7;;;;;;;7.22;80.94336;935.5455;;;;
2019/12/22 10:53:55;;;;;;;11.4;7.8;;;;;;;7.32;80.90332;935.5601;;;;
2019/12/22 10:56:20;;;;;;;7.1;5.9;;;;;;;7.41;80.73535;935.5887;;;;
2019/12/22 10:58:45;;;;;;;6.4;4.8;;;;;;;7.44;81.05469;935.5413;;;;
2019/12/22 11:01:10;;;;;;;8.1;6.9;;;;;;;7.47;81.11914;935.55;;;;
2019/12/22 11:03:35;;;;;;;5.8;4.8;;;;;;;7.46;80.94141;935.5137;;;;
2019/12/22 11:06:00;;;;;;;7.7;6.7;;;;;;;7.54;80.8418;935.5033;;;;
2019/12/22 11:08:26;;;;;;;7.6;5.6;;;;;;;7.67;80.18945;935.4669;;;;
2019/12/22 11:10:51;;;;;;;5.6;4.5;;;;;;;7.62;81.2041;935.3836;;;;
2019/12/22 11:13:16;;;;;;;5.6;3.9;;;;;;;7.72;80.6416;935.3567;;;;
2019/12/22 11:15:41;;;;;;;5.4;3.6;;;;;;;7.84;79.85938;935.3915;;;;
2019/12/22 11:18:06;;;;;;;5.8;3.6;;;;;;;7.84;80.0459;935.3242;;;;
2019/12/22 11:20:31;;;;;;;4.3;3.4;;;;;;;7.94;79.44824;935.2972;;;;
2019/12/22 11:22:56;;;;;;;5.6;4.1;;;;;;;7.94;80.14746;935.2595;;;;
2019/12/22 11:25:22;;;;;;;6.1;4.3;;;;;;;8.06;79.94727;935.23;;;;
2019/12/22 11:27:47;;;;;;;8.1;4.4;;;;;;;8.05;79.74902;935.2018;;;;
2019/12/22 11:30:12;;;;;;;6.6;4;;;;;;;8.15;79.2793;935.1622;;;;
2019/12/22 11:32:37;;;;;;;5.2;3.4;;;;;;;8.16;78.96484;935.2126;;;;
2019/12/22 11:35:03;;;;;;;4.9;3.6;;;;;;;8.19;77.93359;935.1953;;;;
2019/12/22 11:37:28;;;;;;;4.1;3;;;;;;;8.3;77.36914;935.2647;;;;
2019/12/22 11:39:53;;;;;;;5.5;3;;;;;;;8.47;76.43164;935.2523;;;;
2019/12/22 11:42:18;;;;;;;5;3.3;;;;;;;8.65;75.92773;935.2297;;;;
2019/12/22 11:44:43;;;;;;;6.3;4.5;;;;;;;8.83;74.94336;935.3186;;;;
2019/12/22 11:47:08;;;;;;;4.8;3.1;;;;;;;8.83;75.41016;935.2922;;;;
2019/12/22 11:51:43;;;;;;;4.9;3.1;;;;;;;9.13;73.10254;935.2372;;;;
2019/12/22 11:54:08;;;;;;;4.1;2.8;;;;;;;9.33;72.76465;935.1897;;;;
2019/12/22 11:56:33;;;;;;;3.9;2.7;;;;;;;9.41;73.12695;935.2179;;;;
2019/12/22 11:58:58;;;;;;;5.2;2.6;;;;;;;9.66;71.32129;935.1797;;;;
2019/12/22 12:01:23;;;;;;;3.4;2.2;;;;;;;9.66;70.94629;935.1586;;;;
2019/12/22 12:03:48;;;;;;;2.9;2;;;;;;;9.6;70.69043;935.212;;;;
2019/12/22 12:06:13;;;;;;;3.3;1.8;;;;;;;9.46;71.14844;935.1931;;;;
2019/12/22 12:08:38;;;;;;;3.6;1.8;;;;;;;9.32;71.72168;935.2104;;;;
2019/12/22 12:11:03;;;;;;;3.3;1.4;;;;;;;9.38;70.44629;935.1708;;;;
2019/12/22 12:13:28;;;;;;;3;1.3;;;;;;;9.44;71.41504;935.2103;;;;
2019/12/22 12:15:54;;;;;;;1.6;1.1;;;;;;;9.41;71.29199;935.3162;;;;
2019/12/22 12:18:19;;;;;;;1.8;1.2;;;;;;;9.44;71.13379;935.2925;;;;
2019/12/22 12:20:44;;;;;;;1.3;1;;;;;;;9.49;71.15332;935.285;;;;
2019/12/22 12:23:09;;;;;;;2.2;1;;;;;;;9.54;70.31934;935.3349;;;;
2019/12/22 12:25:34;;;;;;;1.3;1;;;;;;;9.57;70.7002;935.3078;;;;
2019/12/22 12:27:59;;;;;;;1.6;0.8;;;;;;;9.51;70.08203;935.3198;;;;
2019/12/22 12:30:24;;;;;;;1.7;0.9;;;;;;;9.49;70.96582;935.3094;;;;
2019/12/22 12:32:49;;;;;;;2.5;0.9;;;;;;;9.48;70.24121;935.3077;;;;
2019/12/22 12:35:14;;;;;;;1.2;0.9;;;;;;;9.41;70.73047;935.3088;;;;
2019/12/22 12:37:39;;;;;;;2.4;0.9;;;;;;;9.43;70.51172;935.3937;;;;
2019/12/22 12:40:05;;;;;;;2.1;0.8;;;;;;;9.45;69.94336;935.3289;;;;
2019/12/22 12:42:30;;;;;;;1.3;0.9;;;;;;;9.34;70.45215;935.4072;;;;
2019/12/22 12:44:55;;;;;;;1.5;0.9;;;;;;;9.39;70.41211;935.33;;;;
2019/12/22 12:47:20;;;;;;;3.2;0.9;;;;;;;9.42;70.45215;935.3624;;;;
2019/12/22 12:49:45;;;;;;;1.1;0.7;;;;;;;9.42;70.05566;935.3434;;;;
2019/12/22 12:52:10;;;;;;;2.5;0.9;;;;;;;9.45;69.7793;935.41;;;;
2019/12/22 12:54:35;;;;;;;1.5;1;;;;;;;9.42;70.2998;935.378;;;;
2019/12/22 12:57:00;;;;;;;0.9;0.8;;;;;;;9.43;70.05566;935.3576;;;;
2019/12/22 12:59:25;;;;;;;2.1;0.9;;;;;;;9.41;70.47461;935.3742;;;;
2019/12/22 13:01:50;;;;;;;1.4;0.9;;;;;;;9.39;69.875;935.3792;;;;
2019/12/22 13:04:16;;;;;;;2.7;0.9;;;;;;;9.38;69.93066;935.4202;;;;
2019/12/22 13:06:41;;;;;;;2.1;0.9;;;;;;;9.39;70.00488;935.4285;;;;
2019/12/22 13:09:06;;;;;;;2.6;1;;;;;;;9.46;70.25977;935.4414;;;;
2019/12/22 13:11:31;;;;;;;1.5;0.8;;;;;;;9.47;70.07422;935.382;;;;
2019/12/22 13:13:56;;;;;;;1.5;0.9;;;;;;;9.48;70.32324;935.5002;;;;
2019/12/22 13:16:21;;;;;;;1.6;0.9;;;;;;;9.56;69.93848;935.4868;;;;
2019/12/22 13:18:46;;;;;;;1.3;0.8;;;;;;;9.59;69.96582;935.5571;;;;
2019/12/22 13:21:11;;;;;;;1.4;0.8;;;;;;;9.66;69.63672;935.5466;;;;
2019/12/22 13:23:36;;;;;;;2;0.9;;;;;;;9.61;69.74512;935.5259;;;;
2019/12/22 13:26:01;;;;;;;1.9;0.9;;;;;;;9.65;70.27832;935.6255;;;;
2019/12/22 13:28:26;;;;;;;1.2;0.7;;;;;;;9.62;69.3623;935.6791;;;;
2019/12/22 13:30:51;;;;;;;1;0.7;;;;;;;9.45;68.9375;935.7037;;;;
2019/12/22 13:33:16;;;;;;;1.4;0.9;;;;;;;9.48;68.56934;935.7112;;;;
2019/12/22 13:35:41;;;;;;;1.4;0.7;;;;;;;9.45;68.66895;935.4911;;;;
2019/12/22 13:38:07;;;;;;;1.1;0.8;;;;;;;9.45;69.33496;935.6284;;;;
2019/12/22 13:40:32;;;;;;;2;0.7;;;;;;;9.5;69.32031;935.6238;;;;
2019/12/22 13:42:57;;;;;;;0.8;0.7;;;;;;;9.5;69.21484;935.6984;;;;
2019/12/22 13:45:22;;;;;;;1.1;0.7;;;;;;;9.51;68.88867;935.6962;;;;
2019/12/22 13:47:47;;;;;;;0.7;0.6;;;;;;;9.55;69.42188;935.7191;;;;
2019/12/22 13:50:12;;;;;;;2;0.7;;;;;;;9.5;69.50586;935.7606;;;;
2019/12/22 13:52:37;;;;;;;1.2;0.6;;;;;;;9.51;69.1582;935.8775;;;;
2019/12/22 13:55:02;;;;;;;1.5;0.7;;;;;;;9.46;69.41797;935.7692;;;;
2019/12/22 13:57:27;;;;;;;2.1;0.8;;;;;;;9.49;69.35254;935.787;;;;
2019/12/22 13:59:52;;;;;;;2.3;0.7;;;;;;;9.47;69.53711;935.7969;;;;
2019/12/22 14:02:17;;;;;;;1.1;0.7;;;;;;;9.49;69.46973;935.933;;;;
2019/12/22 14:04:42;;;;;;;1.3;0.7;;;;;;;9.45;69.70898;936.0076;;;;
2019/12/22 14:07:07;;;;;;;1.2;0.7;;;;;;;9.47;69.47656;936.0262;;;;
2019/12/22 14:09:32;;;;;;;1.8;0.7;;;;;;;9.43;69.51758;936.051;;;;
2019/12/22 14:11:58;;;;;;;0.7;0.7;;;;;;;9.39;69.58203;936.0942;;;;
2019/12/22 14:14:23;;;;;;;0.6;0.6;;;;;;;9.36;69.63672;936.145;;;;
2019/12/22 14:16:48;;;;;;;0.8;0.7;;;;;;;9.35;69.03809;936.1638;;;;
2019/12/22 14:19:13;;;;;;;1.1;0.8;;;;;;;9.38;69.59277;936.265;;;;